Latest Weather Observations for Viewbank

IDV60801

Issued at 3:32 pm EST Sunday 20 August 2017 (issued every 30 minutes, with the page automatically refreshed every 10 minutes)

About weather observations | Map of weather stations | Latest weather observations for VIC | Other Formats
Station Details ID: 086068 Name: VIEWBANK Lat: -37.74 Lon: 145.10 Height: 66.1 m
Data from the previous 72 hours. | See also: Recent months at Viewbank
Date/Time
EST
Temp
°C
App
Temp
°C
Dew
Point
°C
Rel
Hum
%
Delta-T
°C
Wind Press
QNH
hPa
Press
MSL
hPa
Rain since
9am
mm
Dir  Spd
km/h
Gust
km/h
Spd
kts
Gust
kts
20/03:30pm 11.9 8.2 2.6 53 4.0 ESE 11 19 6 10 1020.7 1020.8 0.0
20/03:00pm 12.2 8.7 1.2 47 4.6 ESE 9 15 5 8 1021.0 1021.1 0.0
20/02:30pm 12.7 10.0 2.8 51 4.4 NE 6 9 3 5 1021.7 1021.8 0.0
20/02:00pm 12.5 9.7 2.1 49 4.5 ENE 6 11 3 6 1022.3 1022.4 0.0
20/01:30pm 12.8 10.1 2.4 49 4.5 NW 6 11 3 6 1022.9 1023.0 0.0
20/01:00pm 12.2 9.5 2.4 51 4.2 ENE 6 11 3 6 1023.4 1023.5 0.0
20/12:30pm 12.0 9.7 3.0 54 4.0 W 4 9 2 5 1024.1 1024.2 0.0
20/12:00pm 10.3 7.3 1.9 56 3.5 SE 7 11 4 6 1024.7 1024.8 0.0
20/11:30am 11.4 9.2 3.4 58 3.5 ENE 4 7 2 4 1025.5 1025.6 0.0
20/11:00am 10.0 8.5 5.0 71 2.2 ESE 2 9 1 5 1025.8 1025.9 0.0
20/10:30am 8.3 6.0 4.7 78 1.6 SE 6 11 3 6 1026.3 1026.4 0.0
20/10:00am 6.3 4.1 6.2 99 0.0 E 7 11 4 6 1026.9 1027.0 0.0
20/09:30am 4.9 3.0 4.9 100 0.0 ESE 4 7 2 4 1027.2 1027.3 0.0
20/09:00am 3.6 2.2 3.6 100 0.0 CALM 0 4 0 2 1027.4 1027.5 0.8
20/08:30am 2.6 -1.1 2.6 100 0.0 ESE 11 13 6 7 1027.4 1027.5 0.8
20/08:00am 2.3 -0.5 2.3 100 0.0 SE 6 9 3 5 1027.4 1027.5 0.8
20/07:30am 2.5 0.5 2.5 100 0.0 NE 2 6 1 3 1027.0 1027.1 0.8
20/07:00am 1.7 -2.1 1.7 100 0.0 E 11 13 6 7 1027.0 1027.1 0.8
20/06:30am 2.1 -0.7 2.1 100 0.0 E 6 15 3 8 1027.1 1027.2 0.8
20/06:00am 2.3 0.7 2.3 100 0.0 CALM 0 7 0 4 1026.9 1027.0 0.8
20/05:30am 1.9 -0.2 1.9 100 0.0 SE 2 6 1 3 1027.0 1027.1 0.8
20/05:00am 2.9 0.6 2.9 100 0.0 ENE 4 9 2 5 1026.7 1026.8 0.8
20/04:30am 2.7 -0.6 2.7 100 0.0 E 9 9 5 5 1026.6 1026.7 0.8
20/04:00am 2.9 1.4 2.9 100 0.0 CALM 0 0 0 0 1026.7 1026.8 0.8
20/03:30am 2.5 0.5 2.5 100 0.0 E 2 11 1 6 1026.6 1026.7 0.8
20/03:00am 3.3 1.9 3.3 100 0.0 CALM 0 0 0 0 1026.7 1026.8 0.8
20/02:30am 3.6 2.2 3.6 100 0.0 CALM 0 0 0 0 1026.6 1026.7 0.8
20/02:00am 3.5 1.7 3.5 100 0.0 E 2 7 1 4 1026.6 1026.7 0.8
20/01:30am 3.6 1.1 3.6 100 0.0 E 6 7 3 4 1026.8 1026.9 0.8
20/01:00am 3.8 2.1 3.8 100 0.0 WNW 2 6 1 3 1027.2 1027.3 0.8
20/12:30am 3.0 1.1 3.0 100 0.0 WNW 2 6 1 3 1027.4 1027.5 0.8
20/12:00am 3.0 1.5 3.0 100 0.0 CALM 0 0 0 0 1027.5 1027.6 0.8
 
Date/Time
EST
Temp
°C
App
Temp
°C
Dew
Point
°C
Rel
Hum
%
Delta-T
°C
Wind Press
QNH
hPa
Press
MSL
hPa
Rain since
9am
mm
Dir  Spd
km/h
Gust
km/h
Spd
kts
Gust
kts
19/11:30pm 3.8 2.4 3.7 99 0.0 CALM 0 0 0 0 1027.2 1027.3 0.8
19/11:00pm 5.0 3.1 4.9 99 0.0 W 4 7 2 4 1027.6 1027.7 0.8
19/10:30pm 5.1 4.0 5.0 99 0.0 CALM 0 0 0 0 1027.6 1027.7 0.8
19/10:00pm 5.0 3.1 4.9 99 0.0 SSW 4 6 2 3 1027.5 1027.6 0.8
19/09:30pm 5.3 4.1 4.4 94 0.4 CALM 0 0 0 0 1027.4 1027.5 0.8
19/09:00pm 5.8 4.6 4.4 91 0.6 CALM 0 0 0 0 1027.3 1027.4 0.8
19/08:30pm 6.3 4.8 3.1 80 1.3 CALM 0 0 0 0 1027.2 1027.3 0.8
19/08:00pm 6.6 4.9 2.1 73 1.8 CALM 0 0 0 0 1027.1 1027.2 0.8
19/07:30pm 7.0 4.6 1.9 70 2.1 SW 4 6 2 3 1027.2 1027.3 0.6
19/07:00pm 7.4 4.5 1.7 67 2.3 SSW 6 9 3 5 1027.2 1027.3 0.6
19/06:30pm 7.9 4.9 1.7 65 2.5 SW 7 11 4 6 1027.2 1027.3 0.6
19/06:00pm 8.5 5.1 1.9 63 2.7 SW 9 13 5 7 1027.0 1027.1 0.6
19/05:30pm 9.2 4.6 1.4 58 3.2 SSW 15 24 8 13 1026.7 1026.8 0.6
19/05:00pm 10.1 5.2 2.2 58 3.3 SSW 17 24 9 13 1026.4 1026.5 0.6
19/04:30pm 10.9 7.0 3.5 60 3.3 SSW 13 26 7 14 1026.3 1026.4 0.6
19/04:00pm 10.4 6.1 3.4 62 3.0 SSW 15 24 8 13 1026.2 1026.3 0.6
19/03:30pm 10.7 6.5 3.7 62 3.1 SSW 15 24 8 13 1026.2 1026.3 0.6
19/03:00pm 10.7 6.4 3.3 60 3.2 SSW 15 28 8 15 1026.0 1026.1 0.6
19/02:30pm 9.9 6.2 4.5 69 2.4 SSW 13 20 7 11 1026.4 1026.5 0.6
19/02:00pm 9.1 6.3 5.3 77 1.7 S 9 17 5 9 1026.4 1026.5 0.6
19/01:30pm 8.9 5.2 4.3 73 2.0 S 13 26 7 14 1026.4 1026.5 0.6
19/01:00pm 9.8 6.7 5.4 74 2.0 SW 11 17 6 9 1026.3 1026.4 0.6
19/12:30pm 8.7 7.2 6.8 88 0.9 SSE 4 7 2 4 1026.4 1026.5 0.6
19/12:00pm 7.7 5.2 6.5 92 0.5 SSW 9 19 5 10 1026.5 1026.6 0.6
19/11:30am 7.6 4.9 7.5 99 0.0 SW 11 17 6 9 1026.5 1026.6 0.4
19/11:00am 9.6 7.9 8.2 91 0.7 SSW 7 15 4 8 1026.5 1026.6 0.4
19/10:30am 8.4 6.2 7.8 96 0.3 SW 9 13 5 7 1026.5 1026.6 0.4
19/10:00am 7.6 5.9 7.6 100 0.0 WSW 6 9 3 5 1026.3 1026.4 0.4
19/09:30am 6.7 4.6 6.7 100 0.0 WSW 7 9 4 5 1026.2 1026.3 0.4
19/09:00am 6.4 3.5 6.4 100 0.0 WSW 11 19 6 10 1026.1 1026.2 12.2
19/08:30am 6.1 2.7 6.1 100 0.0 W 13 17 7 9 1025.3 1025.4 11.8
19/08:00am 5.5 3.2 5.5 100 0.0 W 7 9 4 5 1025.0 1025.1 11.8
19/07:30am 5.2 2.4 5.2 100 0.0 W 9 17 5 9 1024.6 1024.7 11.6
19/07:00am 5.0 2.2 5.0 100 0.0 SW 9 15 5 8 1024.0 1024.1 11.6
19/06:30am 4.8 1.9 4.8 100 0.0 W 9 13 5 7 1023.6 1023.7 9.8
19/06:00am 4.9 2.0 4.9 100 0.0 W 9 13 5 7 1023.0 1023.1 9.8
19/05:30am 4.4 2.0 4.4 100 0.0 W 6 11 3 6 1022.4 1022.5 9.6
19/05:00am 4.8 1.9 4.8 100 0.0 W 9 13 5 7 1022.1 1022.2 9.6
19/04:30am 4.8 1.9 4.8 100 0.0 W 9 13 5 7 1021.9 1022.0 9.6
19/04:00am 4.8 1.9 4.8 100 0.0 W 9 13 5 7 1021.7 1021.8 9.4
19/03:30am 4.9 2.4 4.9 100 0.0 WSW 7 15 4 8 1021.5 1021.6 9.4
19/03:00am 5.1 2.3 5.1 100 0.0 W 9 15 5 8 1021.2 1021.3 9.4
19/02:30am 5.3 2.1 5.3 100 0.0 W 11 17 6 9 1021.1 1021.2 9.4
19/02:00am 5.8 2.7 5.7 99 0.0 WSW 11 17 6 9 1021.1 1021.2 9.2
19/01:30am 5.4 2.2 5.3 99 0.0 W 11 17 6 9 1020.9 1021.0 8.8
19/01:00am 5.8 2.0 5.7 99 0.0 WSW 15 24 8 13 1020.8 1020.9 8.8
19/12:30am 6.2 2.8 6.1 99 0.0 W 13 22 7 12 1020.4 1020.5 8.8
19/12:00am 6.4 2.3 6.4 100 0.0 W 17 35 9 19 1020.3 1020.4 8.6
 
Date/Time
EST
Temp
°C
App
Temp
°C
Dew
Point
°C
Rel
Hum
%
Delta-T
°C
Wind Press
QNH
hPa
Press
MSL
hPa
Rain since
9am
mm
Dir  Spd
km/h
Gust
km/h
Spd
kts
Gust
kts
18/11:30pm 6.4 3.5 6.4 100 0.0 WSW 11 17 6 9 1020.1 1020.2 8.4
18/11:00pm 6.6 3.7 6.6 100 0.0 WSW 11 19 6 10 1020.0 1020.1 8.4
18/10:30pm 6.7 3.8 6.6 99 0.0 WSW 11 19 6 10 1019.8 1019.9 7.4
18/10:00pm 6.7 3.4 6.6 99 0.0 W 13 19 7 10 1019.5 1019.6 6.8
18/09:30pm 6.9 4.5 6.8 99 0.0 SW 9 17 5 9 1019.2 1019.3 6.4
18/09:00pm 6.9 4.1 6.8 99 0.0 W 11 22 6 12 1018.7 1018.8 6.2
18/08:30pm 7.3 4.6 7.2 99 0.0 WSW 11 19 6 10 1018.4 1018.5 5.8
18/08:00pm 7.3 4.6 7.2 99 0.0 W 11 19 6 10 1017.9 1018.0 5.6
18/07:30pm 7.3 2.9 7.2 99 0.0 W 20 30 11 16 1017.5 1017.6 5.6
18/07:00pm 7.1 3.9 7.0 99 0.0 W 13 20 7 11 1016.8 1016.9 5.2
18/06:30pm 7.5 3.2 6.9 96 0.3 W 19 43 10 23 1016.6 1016.6 5.0
18/06:00pm 7.8 3.2 6.4 91 0.6 W 20 30 11 16 1015.8 1015.8 4.8
18/05:30pm 8.2 5.3 6.3 88 0.9 W 11 22 6 12 1015.4 1015.4 4.4
18/05:00pm 9.1 3.7 4.7 74 2.0 W 22 39 12 21 1014.9 1014.9 4.0
18/04:30pm 9.7 4.8 5.3 74 2.0 W 20 33 11 18 1014.2 1014.2 4.0
18/04:00pm 10.1 6.0 6.1 76 1.9 W 17 30 9 16 1013.6 1013.6 4.0
18/03:30pm 9.3 5.6 6.2 81 1.4 W 15 26 8 14 1013.3 1013.3 4.0
18/03:00pm 8.5 4.6 7.1 91 0.7 W 17 32 9 17 1012.8 1012.8 4.0
18/02:43pm 9.7 3.5 6.2 79 1.6 W 28 46 15 25 1012.6 1012.6 3.4
18/02:30pm 11.0 6.1 6.9 76 2.0 W 22 35 12 19 1012.0 1012.1 3.0
18/02:00pm 10.4 6.1 8.0 85 1.2 W 20 32 11 17 1011.6 1011.7 3.0
18/01:30pm 8.2 3.8 7.3 94 0.4 W 20 35 11 19 1011.6 1011.7 3.0
18/01:00pm 6.6 0.0 6.0 96 0.3 W 30 50 16 27 1011.2 1011.3 3.0
18/12:44pm 7.4 1.5 5.7 89 0.8 WSW 26 48 14 26 1011.0 1011.1 2.8
18/12:30pm 10.7 5.0 4.8 67 2.7 W 24 43 13 23 1010.5 1010.6 0.2
18/12:03pm 11.5 4.7 3.3 57 3.6 W 28 54 15 29 1010.5 1010.6 0.2
18/12:00pm 11.9 5.7 4.2 59 3.5 W 26 46 14 25 1010.5 1010.6 0.2
18/11:32am 11.0 4.3 3.8 61 3.2 W 28 48 15 26 1010.5 1010.6 0.0
18/11:30am 10.9 4.6 3.7 61 3.2 W 26 43 14 23 1010.6 1010.7 0.0
18/11:18am 10.3 3.5 3.1 61 3.1 W 28 56 15 30 1010.3 1010.4 0.0
18/11:00am 10.4 4.8 3.7 63 3.0 W 22 41 12 22 1010.3 1010.4 0.0
18/10:30am 10.5 4.4 4.9 68 2.5 W 26 50 14 27 1010.2 1010.3 0.0
18/10:00am 9.8 4.3 3.8 66 2.6 W 22 39 12 21 1009.8 1009.9 0.0
18/09:30am 8.7 3.0 3.1 68 2.4 W 22 44 12 24 1009.6 1009.7 0.0
18/09:00am 9.0 1.8 3.2 67 2.5 WNW 30 54 16 29 1009.1 1009.2 2.0
18/08:40am 8.8 2.1 3.4 69 2.3 WNW 28 46 15 25 1008.9 1009.0 2.0
18/08:30am 8.8 3.2 3.6 70 2.3 WNW 22 41 12 22 1008.7 1008.8 2.0
18/08:00am 8.0 3.4 3.7 74 1.9 WNW 17 32 9 17 1008.4 1008.5 2.0
18/07:30am 8.1 3.8 3.4 72 2.0 WNW 15 26 8 14 1007.9 1008.0 2.0
18/07:00am 8.1 3.8 3.2 71 2.1 WNW 15 26 8 14 1007.4 1007.5 2.0
18/06:30am 8.2 3.5 3.3 71 2.1 WNW 17 30 9 16 1006.9 1007.0 2.0
18/06:00am 8.5 4.1 2.9 68 2.4 WNW 15 26 8 14 1006.5 1006.6 2.0
18/05:30am 8.3 4.3 3.0 69 2.3 WNW 13 22 7 12 1006.1 1006.2 2.0
18/05:00am 8.4 4.4 2.8 68 2.4 NW 13 24 7 13 1005.8 1005.9 2.0
18/04:30am 8.2 4.2 2.9 69 2.2 NNW 13 22 7 12 1005.4 1005.5 2.0
18/04:00am 7.9 4.4 3.4 73 1.9 NNW 11 17 6 9 1005.3 1005.4 2.0
18/03:30am 8.1 4.2 3.4 72 2.0 NNW 13 20 7 11 1005.0 1005.1 2.0
18/03:00am 7.9 4.0 3.4 73 1.9 N 13 20 7 11 1004.7 1004.8 2.0
18/02:30am 7.8 3.6 3.7 75 1.8 N 15 26 8 14 1004.8 1004.9 2.0
18/02:00am 8.1 4.3 3.8 74 1.9 NNW 13 20 7 11 1005.0 1005.1 2.0
18/01:30am 7.9 4.4 3.6 74 1.8 N 11 22 6 12 1004.9 1005.0 2.0
18/01:00am 8.3 4.9 3.9 74 1.9 N 11 19 6 10 1004.8 1004.9 2.0
18/12:30am 8.3 4.6 4.3 76 1.8 NNW 13 20 7 11 1004.9 1005.0 2.0
18/12:00am 7.7 4.9 5.2 84 1.1 N 9 13 5 7 1004.8 1004.9 2.0
 
Date/Time
EST
Temp
°C
App
Temp
°C
Dew
Point
°C
Rel
Hum
%
Delta-T
°C
Wind Press
QNH
hPa
Press
MSL
hPa
Rain since
9am
mm
Dir  Spd
km/h
Gust
km/h
Spd
kts
Gust
kts
17/11:30pm 7.6 5.7 4.7 82 1.3 NNW 4 9 2 5 1004.8 1004.9 2.0
17/11:00pm 7.8 4.9 4.6 80 1.4 N 9 19 5 10 1004.3 1004.4 2.0
17/10:30pm 8.2 4.8 4.2 76 1.7 N 11 17 6 9 1004.4 1004.5 2.0
17/10:00pm 7.9 4.1 4.1 77 1.7 NNW 13 22 7 12 1004.5 1004.6 2.0
17/09:30pm 8.0 4.3 4.4 78 1.6 N 13 20 7 11 1004.3 1004.4 2.0
17/09:00pm 8.4 4.3 4.6 77 1.7 NNW 15 24 8 13 1004.3 1004.4 2.0
17/08:30pm 8.4 4.6 5.9 84 1.1 N 15 22 8 12 1004.0 1004.0 2.0
17/08:00pm 8.1 4.6 7.2 94 0.4 NNW 15 22 8 12 1004.3 1004.4 2.0
17/07:30pm 8.9 4.3 6.3 84 1.2 WNW 20 41 11 22 1004.5 1004.6 1.4
17/07:00pm 9.9 5.9 5.1 72 2.2 NNW 15 22 8 12 1003.6 1003.6 1.2
17/06:30pm 9.9 6.0 5.5 74 2.0 NNW 15 28 8 15 1003.3 1003.3 1.2
17/06:00pm 9.7 6.8 8.0 89 0.8 NNW 13 19 7 10 1002.5 1002.5 1.2
17/05:30pm 9.5 7.2 9.0 97 0.2 NW 11 20 6 11 1002.2 1002.2 1.2
17/05:00pm 9.4 6.4 9.3 99 0.0 W 15 22 8 12 1002.3 1002.3 1.2
17/04:34pm 11.0 5.4 5.5 69 2.5 W 24 54 13 29 1001.4 1001.4 0.4
17/04:30pm 13.5 8.1 4.6 55 4.1 WNW 22 43 12 23 1001.2 1001.2 0.4
17/04:00pm 14.1 10.5 4.9 54 4.3 NW 13 22 7 12 1001.1 1001.1 0.4

Other Formats:

Comma delimited format used in spreadsheet applications
http://www.bom.gov.au/fwo/IDV60801/IDV60801.95874.axf

JavaScript Object Notation format (JSON) in row-major order
http://www.bom.gov.au/fwo/IDV60801/IDV60801.95874.json